Time;durP1;ratioP1;P1;durP2;ratioP2;P2;SDS_P1;SDS_P2;PMS_P1;PMS_P2;Temp;Humidity;BMP_temperature;BMP_pressure;BME280_temperature;BME280_humidity;BME280_pressure;Samples;Min_cycle;Max_cycle;Signal;HPM_P1;HPM_P2
2022/04/20 00:01:49;;;;;;;29.20;15.00;;;;;;;;;;5073304;28;20045;-72
2022/04/20 00:04:55;;;;;;;22.30;15.60;;;;;;;;;;5074125;28;20043;-73
2022/04/20 00:07:59;;;;;;;22.98;15.57;;;;;;;;;;5073297;28;20378;-74
2022/04/20 00:11:04;;;;;;;35.13;16.15;;;;;;;;;;5073769;28;20055;-72
2022/04/20 00:14:08;;;;;;;27.77;16.17;;;;;;;;;;5073676;28;20051;-73
2022/04/20 00:17:12;;;;;;;24.20;14.77;;;;;;;;;;5073498;28;20420;-73
2022/04/20 00:20:17;;;;;;;24.10;15.02;;;;;;;;;;5072967;28;20044;-74
2022/04/20 00:23:21;;;;;;;22.17;14.45;;;;;;;;;;5073441;28;20048;-72
2022/04/20 00:26:26;;;;;;;23.48;14.98;;;;;;;;;;5073452;28;20040;-74
2022/04/20 00:29:30;;;;;;;25.13;15.35;;;;;;;;;;5061004;28;20055;-74
2022/04/20 00:32:35;;;;;;;24.23;14.02;;;;;;;;;;5072302;28;20519;-72
2022/04/20 00:35:39;;;;;;;24.42;14.63;;;;;;;;;;5073101;28;20491;-72
2022/04/20 00:38:44;;;;;;;20.65;12.15;;;;;;;;;;5073133;28;20052;-72
2022/04/20 00:41:49;;;;;;;21.83;12.77;;;;;;;;;;5072491;28;20051;-74
2022/04/20 00:44:54;;;;;;;20.67;11.68;;;;;;;;;;5072386;28;20043;-73
2022/04/20 00:47:58;;;;;;;26.35;12.25;;;;;;;;;;5072058;28;20048;-73
2022/04/20 00:51:03;;;;;;;18.10;11.80;;;;;;;;;;5073104;28;20036;-73
2022/04/20 00:54:07;;;;;;;20.20;11.00;;;;;;;;;;5071903;28;20047;-73
2022/04/20 00:57:14;;;;;;;19.33;9.80;;;;;;;;;;5072735;28;20056;-74
2022/04/20 01:00:19;;;;;;;16.30;10.52;;;;;;;;;;5072102;28;20052;-73
2022/04/20 01:03:25;;;;;;;17.70;10.25;;;;;;;;;;5071780;28;20499;-73
2022/04/20 01:06:52;;;;;;;14.23;8.77;;;;;;;;;;5071680;28;20059;-72
2022/04/20 01:10:20;;;;;;;14.05;7.50;;;;;;;;;;5072219;28;20055;-74
2022/04/20 01:13:48;;;;;;;16.52;8.68;;;;;;;;;;5059964;28;20539;-73
2022/04/20 01:17:31;;;;;;;16.80;8.48;;;;;;;;;;5072559;28;20040;-73
2022/04/20 01:20:51;;;;;;;12.88;7.22;;;;;;;;;;5071534;28;20530;-73
2022/04/20 01:24:13;;;;;;;13.15;7.40;;;;;;;;;;5072543;28;20071;-73
2022/04/20 01:27:52;;;;;;;13.45;5.65;;;;;;;;;;5071305;28;20043;-73
2022/04/20 01:31:16;;;;;;;11.13;5.45;;;;;;;;;;5072190;28;20500;-73
2022/04/20 01:34:46;;;;;;;8.80;5.22;;;;;;;;;;5072054;28;20047;-73
2022/04/20 01:37:50;;;;;;;13.20;5.68;;;;;;;;;;5071818;28;20036;-73
2022/04/20 01:40:55;;;;;;;12.38;5.35;;;;;;;;;;5070921;28;20047;-73
2022/04/20 01:43:59;;;;;;;9.25;5.53;;;;;;;;;;5070848;28;20040;-72
2022/04/20 01:47:12;;;;;;;11.02;5.18;;;;;;;;;;5071347;28;20049;-72
2022/04/20 01:54:28;;;;;;;10.48;5.43;;;;;;;;;;5074945;28;20511;-74
2022/04/20 01:57:42;;;;;;;12.55;6.47;;;;;;;;;;5071323;28;20055;-72
2022/04/20 02:04:32;;;;;;;13.15;5.03;;;;;;;;;;5070756;28;20044;-73
2022/04/20 02:07:37;;;;;;;13.82;5.20;;;;;;;;;;5070203;28;20063;-72
2022/04/20 02:10:41;;;;;;;12.38;5.45;;;;;;;;;;5070373;28;20198;-73
2022/04/20 02:13:45;;;;;;;10.38;5.78;;;;;;;;;;5047350;28;20112;-72
2022/04/20 02:16:53;;;;;;;6.80;4.85;;;;;;;;;;5059277;28;20055;-73
2022/04/20 02:20:12;;;;;;;7.78;4.90;;;;;;;;;;5070483;28;20045;-74
2022/04/20 02:23:18;;;;;;;15.57;5.70;;;;;;;;;;5058708;28;20040;-72
2022/04/20 02:26:23;;;;;;;10.55;5.35;;;;;;;;;;5070197;28;20042;-72
2022/04/20 02:29:28;;;;;;;11.00;5.13;;;;;;;;;;5070669;28;20476;-73
2022/04/20 02:32:32;;;;;;;9.07;5.38;;;;;;;;;;5071080;28;20403;-73
2022/04/20 02:35:37;;;;;;;12.18;4.95;;;;;;;;;;5070299;28;20040;-75
2022/04/20 02:38:44;;;;;;;9.75;4.90;;;;;;;;;;5070904;28;20051;-72
2022/04/20 02:41:51;;;;;;;8.75;5.80;;;;;;;;;;5071313;28;20449;-73
2022/04/20 02:44:56;;;;;;;12.75;6.13;;;;;;;;;;5070501;28;20028;-72
2022/04/20 02:48:01;;;;;;;12.48;5.45;;;;;;;;;;5070807;28;20047;-72
2022/04/20 02:51:05;;;;;;;11.25;5.57;;;;;;;;;;5070284;28;20044;-73
2022/04/20 02:54:09;;;;;;;12.15;5.40;;;;;;;;;;5070866;28;20186;-73
2022/04/20 02:57:16;;;;;;;11.05;5.28;;;;;;;;;;5070764;28;20071;-74
2022/04/20 03:00:23;;;;;;;11.35;5.13;;;;;;;;;;5069750;28;20044;-73
2022/04/20 03:03:35;;;;;;;14.25;5.35;;;;;;;;;;5069950;28;20400;-73
2022/04/20 03:06:51;;;;;;;11.18;5.70;;;;;;;;;;5059920;28;20270;-73
2022/04/20 03:10:07;;;;;;;10.35;5.43;;;;;;;;;;5069941;28;20048;-73
2022/04/20 03:13:17;;;;;;;12.32;5.43;;;;;;;;;;5058168;28;20051;-73
2022/04/20 03:16:21;;;;;;;10.32;6.05;;;;;;;;;;5069513;28;20044;-73
2022/04/20 03:19:28;;;;;;;11.32;6.55;;;;;;;;;;5069931;28;20051;-73
2022/04/20 03:22:32;;;;;;;11.68;7.15;;;;;;;;;;5069752;28;20035;-72
2022/04/20 03:25:37;;;;;;;14.30;6.25;;;;;;;;;;5070142;28;20051;-74
2022/04/20 03:29:01;;;;;;;11.70;6.30;;;;;;;;;;5070650;28;20511;-74
2022/04/20 03:32:09;;;;;;;10.55;6.32;;;;;;;;;;5058413;28;20063;-72
2022/04/20 03:35:15;;;;;;;11.55;6.50;;;;;;;;;;5070095;28;20397;-73
2022/04/20 03:38:19;;;;;;;11.95;5.57;;;;;;;;;;5074487;28;20043;-72
2022/04/20 03:41:24;;;;;;;12.93;6.10;;;;;;;;;;5073639;28;20048;-73
2022/04/20 03:44:28;;;;;;;15.02;5.93;;;;;;;;;;5074409;28;20047;-73
2022/04/20 03:47:33;;;;;;;8.40;5.10;;;;;;;;;;5073247;28;20048;-74
2022/04/20 03:50:37;;;;;;;10.25;5.10;;;;;;;;;;5074165;28;20155;-71
2022/04/20 03:53:42;;;;;;;9.55;5.10;;;;;;;;;;5072921;28;20059;-73
2022/04/20 03:57:07;;;;;;;12.25;5.05;;;;;;;;;;5061317;28;20032;-73
2022/04/20 04:00:20;;;;;;;12.30;5.10;;;;;;;;;;5073304;28;20127;-73
2022/04/20 04:03:31;;;;;;;9.20;5.28;;;;;;;;;;5073955;28;20047;-72
2022/04/20 04:06:43;;;;;;;11.25;4.47;;;;;;;;;;5072624;28;20040;-72
2022/04/20 04:09:49;;;;;;;11.13;5.03;;;;;;;;;;5049954;28;20036;-72
2022/04/20 04:12:57;;;;;;;8.63;4.93;;;;;;;;;;5072756;28;20059;-72
2022/04/20 04:16:02;;;;;;;11.10;4.22;;;;;;;;;;5072628;28;20036;-73
2022/04/20 04:19:09;;;;;;;7.30;4.35;;;;;;;;;;5072754;28;20051;-73
2022/04/20 04:22:13;;;;;;;5.70;4.45;;;;;;;;;;5072057;28;20044;-72
2022/04/20 04:25:24;;;;;;;9.40;5.00;;;;;;;;;;5072699;28;20040;-74
2022/04/20 04:28:30;;;;;;;6.57;4.07;;;;;;;;;;5072463;28;20032;-74
2022/04/20 04:31:37;;;;;;;9.30;4.80;;;;;;;;;;5061341;28;20283;-75
2022/04/20 04:34:41;;;;;;;10.23;4.22;;;;;;;;;;5072424;28;20044;-72
2022/04/20 04:37:47;;;;;;;14.55;4.93;;;;;;;;;;5072036;28;20040;-72
2022/04/20 04:40:55;;;;;;;7.85;4.30;;;;;;;;;;5060828;28;20071;-71
2022/04/20 04:44:00;;;;;;;16.10;4.65;;;;;;;;;;5072895;28;20033;-74
2022/04/20 04:50:33;;;;;;;10.00;4.45;;;;;;;;;;5072289;28;20052;-73
2022/04/20 04:53:38;;;;;;;13.43;4.00;;;;;;;;;;5060749;28;20495;-72
2022/04/20 04:56:44;;;;;;;9.20;4.63;;;;;;;;;;5071840;28;20043;-72
2022/04/20 04:59:49;;;;;;;10.20;4.60;;;;;;;;;;5071837;28;20044;-73
2022/04/20 05:02:53;;;;;;;9.88;4.68;;;;;;;;;;5071854;28;20503;-73
2022/04/20 05:05:58;;;;;;;9.68;4.80;;;;;;;;;;5060326;28;20374;-74
2022/04/20 05:09:21;;;;;;;12.15;4.53;;;;;;;;;;5071769;28;20049;-72
2022/04/20 05:12:26;;;;;;;21.73;5.45;;;;;;;;;;5071828;28;20051;-73
2022/04/20 05:15:30;;;;;;;16.25;6.40;;;;;;;;;;5071590;28;20059;-72
2022/04/20 05:18:35;;;;;;;27.02;7.93;;;;;;;;;;5071706;28;20052;-73
2022/04/20 05:21:40;;;;;;;35.67;10.05;;;;;;;;;;5071466;28;20503;-72
2022/04/20 05:24:45;;;;;;;29.27;7.15;;;;;;;;;;5071554;28;20043;-73
2022/04/20 05:27:53;;;;;;;25.48;6.78;;;;;;;;;;5072001;28;20051;-73
2022/04/20 05:31:03;;;;;;;16.02;5.97;;;;;;;;;;5071340;28;20039;-64
2022/04/20 05:34:09;;;;;;;18.88;6.85;;;;;;;;;;5070875;28;20079;-66
2022/04/20 05:44:02;;;;;;;13.60;6.40;;;;;;;;;;5070955;28;20040;-62
2022/04/20 05:47:07;;;;;;;17.80;6.65;;;;;;;;;;5070896;28;20044;-62
2022/04/20 05:50:11;;;;;;;17.05;6.60;;;;;;;;;;5071238;28;20048;-63
2022/04/20 05:53:16;;;;;;;15.32;6.28;;;;;;;;;;5070612;28;20071;-63
2022/04/20 05:56:21;;;;;;;20.80;6.85;;;;;;;;;;5059562;28;20039;-63
2022/04/20 05:59:26;;;;;;;16.83;6.35;;;;;;;;;;5069555;28;20051;-64
2022/04/20 06:02:33;;;;;;;12.80;6.00;;;;;;;;;;5059023;28;20048;-61
2022/04/20 06:05:38;;;;;;;22.45;6.30;;;;;;;;;;5069042;28;20048;-61
2022/04/20 06:09:01;;;;;;;15.65;5.80;;;;;;;;;;5069948;28;20059;-62
2022/04/20 06:12:24;;;;;;;19.80;5.82;;;;;;;;;;5071117;28;20056;-63
2022/04/20 06:15:42;;;;;;;12.57;5.60;;;;;;;;;;5058710;28;20051;-62
2022/04/20 06:18:47;;;;;;;15.60;4.45;;;;;;;;;;5071148;28;20400;-63
2022/04/20 06:22:12;;;;;;;8.35;4.05;;;;;;;;;;5070067;28;20046;-65
2022/04/20 06:25:29;;;;;;;16.20;4.00;;;;;;;;;;5070118;28;20397;-64
2022/04/20 06:28:49;;;;;;;13.93;4.20;;;;;;;;;;5069530;28;20035;-66
2022/04/20 06:32:18;;;;;;;13.13;3.35;;;;;;;;;;5072662;28;20043;-65
2022/04/20 06:35:40;;;;;;;9.32;2.55;;;;;;;;;;5069614;28;20411;-67
2022/04/20 06:38:52;;;;;;;8.52;3.70;;;;;;;;;;5069611;28;20036;-65
2022/04/20 06:42:22;;;;;;;13.32;3.88;;;;;;;;;;5070927;28;20044;-61
2022/04/20 06:45:52;;;;;;;12.77;3.58;;;;;;;;;;5069816;28;20043;-65
2022/04/20 06:49:14;;;;;;;8.10;2.92;;;;;;;;;;5069841;28;20043;-62
2022/04/20 06:59:40;;;;;;;8.13;2.63;;;;;;;;;;5056578;28;20140;-64
2022/04/20 07:03:09;;;;;;;10.27;2.38;;;;;;;;;;5069950;28;20032;-65
2022/04/20 07:06:27;;;;;;;10.00;2.35;;;;;;;;;;5070170;28;20047;-63
2022/04/20 07:10:07;;;;;;;8.50;2.80;;;;;;;;;;5050793;28;20604;-63
2022/04/20 07:13:31;;;;;;;10.23;2.88;;;;;;;;;;5074016;28;20048;-62
2022/04/20 07:16:36;;;;;;;9.10;2.80;;;;;;;;;;5062439;28;20048;-63
2022/04/20 07:20:17;;;;;;;11.48;2.60;;;;;;;;;;5074125;28;20040;-61
2022/04/20 07:23:37;;;;;;;7.35;2.25;;;;;;;;;;5073594;28;20043;-62
2022/04/20 07:27:00;;;;;;;8.68;2.20;;;;;;;;;;5074487;28;20048;-63
2022/04/20 07:30:39;;;;;;;10.55;2.70;;;;;;;;;;5071835;28;20036;-62
2022/04/20 07:34:02;;;;;;;11.20;2.60;;;;;;;;;;5074056;28;20055;-64
2022/04/20 07:37:31;;;;;;;8.35;2.67;;;;;;;;;;5079602;28;20048;-61
2022/04/20 07:40:53;;;;;;;7.25;2.67;;;;;;;;;;5074109;28;20049;-63
2022/04/20 07:44:26;;;;;;;7.45;2.88;;;;;;;;;;5072523;28;20036;-62
2022/04/20 07:47:35;;;;;;;6.53;3.15;;;;;;;;;;5073044;28;20036;-63
2022/04/20 07:51:02;;;;;;;7.53;2.30;;;;;;;;;;5073026;28;20036;-62
2022/04/20 07:54:15;;;;;;;7.22;2.55;;;;;;;;;;5073629;28;20044;-63
2022/04/20 07:57:53;;;;;;;6.47;2.28;;;;;;;;;;5073062;28;20032;-65
2022/04/20 08:01:20;;;;;;;7.03;2.97;;;;;;;;;;5073806;28;20044;-62
2022/04/20 08:04:53;;;;;;;7.88;2.80;;;;;;;;;;5073859;28;20028;-62
2022/04/20 08:08:02;;;;;;;8.93;3.00;;;;;;;;;;5073295;28;20480;-62
2022/04/20 08:11:26;;;;;;;5.55;2.67;;;;;;;;;;5073011;28;20040;-62
2022/04/20 08:14:34;;;;;;;10.00;2.38;;;;;;;;;;5072703;28;20493;-62
2022/04/20 08:17:48;;;;;;;9.63;2.50;;;;;;;;;;5072572;28;20056;-61
2022/04/20 08:21:10;;;;;;;10.95;3.67;;;;;;;;;;5072886;28;20040;-62
2022/04/20 08:24:15;;;;;;;10.00;2.90;;;;;;;;;;5073282;28;20047;-61
2022/04/20 08:27:20;;;;;;;22.20;3.60;;;;;;;;;;5073554;28;20050;-61
2022/04/20 08:30:24;;;;;;;9.68;2.60;;;;;;;;;;5073566;28;20043;-60
2022/04/20 08:33:28;;;;;;;6.78;2.40;;;;;;;;;;5072208;28;20048;-61
2022/04/20 08:36:33;;;;;;;11.35;3.00;;;;;;;;;;5072967;28;20032;-64
2022/04/20 08:39:39;;;;;;;7.88;2.50;;;;;;;;;;5061235;28;20043;-62
2022/04/20 08:42:43;;;;;;;9.40;2.60;;;;;;;;;;5072979;28;20040;-62
2022/04/20 08:45:49;;;;;;;10.98;2.80;;;;;;;;;;5073348;28;20036;-61
2022/04/20 08:48:54;;;;;;;8.82;2.60;;;;;;;;;;5073036;28;20087;-61
2022/04/20 08:55:23;;;;;;;6.20;2.50;;;;;;;;;;5072707;28;20040;-61
2022/04/20 08:58:27;;;;;;;5.90;2.45;;;;;;;;;;5072968;28;20045;-61
2022/04/20 09:01:31;;;;;;;10.85;2.55;;;;;;;;;;5071709;28;20429;-65
2022/04/20 09:04:35;;;;;;;7.68;2.50;;;;;;;;;;5071435;28;20044;-61
2022/04/20 09:07:40;;;;;;;11.65;2.72;;;;;;;;;;5072199;28;20052;-61
2022/04/20 09:10:45;;;;;;;8.20;2.90;;;;;;;;;;5071944;28;20055;-62
2022/04/20 09:13:49;;;;;;;12.57;3.38;;;;;;;;;;5072324;28;20045;-60
2022/04/20 09:16:57;;;;;;;9.63;2.90;;;;;;;;;;5072512;28;20098;-62
2022/04/20 09:20:01;;;;;;;8.90;3.10;;;;;;;;;;5072385;28;20048;-62
2022/04/20 09:23:09;;;;;;;21.15;3.60;;;;;;;;;;5072272;28;20036;-61
2022/04/20 09:26:16;;;;;;;8.75;3.10;;;;;;;;;;5072216;28;20044;-62
2022/04/20 09:29:20;;;;;;;9.90;3.13;;;;;;;;;;5072501;28;20044;-62
2022/04/20 09:32:34;;;;;;;13.50;3.17;;;;;;;;;;5071944;28;20040;-62
2022/04/20 09:35:45;;;;;;;7.72;2.80;;;;;;;;;;5072096;28;20060;-62
2022/04/20 09:39:03;;;;;;;8.43;2.85;;;;;;;;;;5071308;28;20037;-61
2022/04/20 09:42:14;;;;;;;9.00;2.92;;;;;;;;;;5071910;28;20037;-61
2022/04/20 09:45:20;;;;;;;12.10;3.38;;;;;;;;;;5071943;28;20033;-62
2022/04/20 09:51:47;;;;;;;6.70;3.08;;;;;;;;;;5071786;28;20036;-61
2022/04/20 09:54:57;;;;;;;9.88;2.88;;;;;;;;;;5071431;28;20053;-61
2022/04/20 09:58:13;;;;;;;9.38;3.20;;;;;;;;;;5071918;28;20044;-62
2022/04/20 10:01:25;;;;;;;11.27;3.00;;;;;;;;;;5071641;28;20041;-61
2022/04/20 10:04:29;;;;;;;;;;;;;;;;;;5072404;28;20043;-61
2022/04/20 10:07:35;;;;;;;7.13;2.92;;;;;;;;;;5070264;28;19943;-62
2022/04/20 10:10:39;;;;;;;8.80;2.40;;;;;;;;;;5071283;28;20485;-61
2022/04/20 10:13:43;;;;;;;5.90;2.78;;;;;;;;;;5071156;28;20048;-62
2022/04/20 10:16:51;;;;;;;7.35;2.70;;;;;;;;;;5070908;28;20041;-62
2022/04/20 10:19:55;;;;;;;7.13;3.03;;;;;;;;;;5071057;28;20037;-63
2022/04/20 10:23:01;;;;;;;6.47;2.70;;;;;;;;;;5070933;28;20048;-62
2022/04/20 10:26:07;;;;;;;13.95;3.20;;;;;;;;;;5070149;28;20036;-63
2022/04/20 10:29:18;;;;;;;10.32;3.08;;;;;;;;;;5070981;28;20052;-63
2022/04/20 10:32:26;;;;;;;10.05;2.88;;;;;;;;;;5071089;28;20043;-62
2022/04/20 10:35:56;;;;;;;13.75;3.63;;;;;;;;;;5069885;28;20048;-63
2022/04/20 10:39:24;;;;;;;6.13;2.90;;;;;;;;;;5070276;28;20051;-62
2022/04/20 10:42:44;;;;;;;7.30;2.67;;;;;;;;;;5060317;28;20370;-62
2022/04/20 10:46:04;;;;;;;9.20;3.20;;;;;;;;;;5069579;28;20044;-64
2022/04/20 10:49:18;;;;;;;5.97;2.83;;;;;;;;;;5070944;28;20370;-63
2022/04/20 10:52:24;;;;;;;8.15;2.88;;;;;;;;;;5070297;28;20044;-61
2022/04/20 10:55:31;;;;;;;7.75;3.10;;;;;;;;;;5058149;28;20040;-63
2022/04/20 10:58:36;;;;;;;8.63;2.63;;;;;;;;;;5070759;28;20037;-62
2022/04/20 11:01:55;;;;;;;5.60;2.70;;;;;;;;;;5070574;28;20033;-62
2022/04/20 11:05:13;;;;;;;4.68;2.10;;;;;;;;;;5070803;28;20036;-62
2022/04/20 11:08:17;;;;;;;6.65;2.45;;;;;;;;;;5070380;28;20044;-62
2022/04/20 11:21:34;;;;;;;8.93;2.97;;;;;;;;;;5069522;28;20041;-62
2022/04/20 11:24:38;;;;;;;5.10;2.42;;;;;;;;;;5070375;28;20036;-62
2022/04/20 11:27:43;;;;;;;5.78;2.67;;;;;;;;;;5070355;28;20040;-62
2022/04/20 11:30:47;;;;;;;4.28;2.00;;;;;;;;;;5070576;28;20128;-61
2022/04/20 11:33:53;;;;;;;5.28;2.28;;;;;;;;;;5070429;28;20493;-62
2022/04/20 11:37:00;;;;;;;9.43;2.80;;;;;;;;;;5069583;28;20040;-62
2022/04/20 11:40:14;;;;;;;11.25;2.97;;;;;;;;;;5070403;28;20037;-61
2022/04/20 11:43:17;;;;;;;8.63;2.42;;;;;;;;;;5070235;28;20036;-62
2022/04/20 11:46:22;;;;;;;6.25;2.95;;;;;;;;;;5070390;28;20044;-61
2022/04/20 11:49:36;;;;;;;9.18;3.05;;;;;;;;;;5070129;28;20036;-62
2022/04/20 11:52:40;;;;;;;7.50;2.20;;;;;;;;;;5070353;28;20041;-63
2022/04/20 11:56:11;;;;;;;5.70;1.80;;;;;;;;;;5070809;28;20044;-62
2022/04/20 11:59:17;;;;;;;3.75;1.70;;;;;;;;;;5073843;28;20041;-61
2022/04/20 12:02:22;;;;;;;7.82;2.22;;;;;;;;;;5073840;28;20476;-61
2022/04/20 12:05:35;;;;;;;9.27;2.22;;;;;;;;;;5061621;28;20048;-61
2022/04/20 12:08:43;;;;;;;3.80;1.90;;;;;;;;;;5073334;28;20049;-61
2022/04/20 12:11:47;;;;;;;4.68;2.60;;;;;;;;;;5073854;28;20036;-60
2022/04/20 12:14:52;;;;;;;6.05;2.22;;;;;;;;;;5073581;28;20052;-62
2022/04/20 12:17:56;;;;;;;6.43;2.40;;;;;;;;;;5073733;28;20040;-62
2022/04/20 12:21:00;;;;;;;9.20;2.55;;;;;;;;;;5073533;28;20044;-62
2022/04/20 12:24:05;;;;;;;7.15;2.58;;;;;;;;;;5073406;28;20056;-61
2022/04/20 12:27:27;;;;;;;9.07;2.58;;;;;;;;;;5072524;28;20044;-61
2022/04/20 12:30:36;;;;;;;10.73;3.03;;;;;;;;;;5072459;28;20033;-60
2022/04/20 12:33:41;;;;;;;10.52;2.70;;;;;;;;;;5073089;28;20054;-61
2022/04/20 12:37:03;;;;;;;7.95;2.60;;;;;;;;;;5072686;28;20055;-62
2022/04/20 12:40:21;;;;;;;7.82;2.53;;;;;;;;;;5073240;28;20369;-62
2022/04/20 12:43:33;;;;;;;13.18;3.08;;;;;;;;;;5072944;28;20033;-62
2022/04/20 12:46:37;;;;;;;9.20;2.20;;;;;;;;;;5072292;28;20059;-62
2022/04/20 12:49:45;;;;;;;4.18;2.17;;;;;;;;;;5072918;28;20044;-62
2022/04/20 12:52:50;;;;;;;26.45;3.20;;;;;;;;;;5072254;28;20049;-61
2022/04/20 13:03:02;;;;;;;4.72;2.22;;;;;;;;;;5072514;28;20494;-60
2022/04/20 13:06:10;;;;;;;8.93;3.03;;;;;;;;;;5072323;28;20499;-61
2022/04/20 13:09:14;;;;;;;10.70;2.42;;;;;;;;;;5072143;28;20040;-61
2022/04/20 13:12:18;;;;;;;5.03;2.47;;;;;;;;;;5072388;28;20051;-60
2022/04/20 13:15:24;;;;;;;10.57;2.03;;;;;;;;;;5071367;28;20040;-62
2022/04/20 13:18:28;;;;;;;6.18;2.13;;;;;;;;;;5072099;28;20044;-62
2022/04/20 13:21:33;;;;;;;5.40;2.20;;;;;;;;;;5072451;28;20044;-63
2022/04/20 13:28:00;;;;;;;3.95;1.90;;;;;;;;;;5072329;28;20059;-62
2022/04/20 13:31:04;;;;;;;5.45;2.10;;;;;;;;;;5071963;28;20390;-63
2022/04/20 13:34:08;;;;;;;10.07;2.17;;;;;;;;;;5071641;28;20052;-62
2022/04/20 13:37:13;;;;;;;6.75;2.55;;;;;;;;;;5071486;28;20063;-62
2022/04/20 13:40:17;;;;;;;3.95;2.25;;;;;;;;;;5070976;28;20044;-63
2022/04/20 13:43:21;;;;;;;3.33;1.90;;;;;;;;;;5070987;28;20485;-63
2022/04/20 13:46:26;;;;;;;3.25;1.98;;;;;;;;;;5071839;28;20033;-63
2022/04/20 13:49:30;;;;;;;5.63;2.10;;;;;;;;;;5071673;28;20041;-61
2022/04/20 13:52:38;;;;;;;6.65;2.22;;;;;;;;;;5071769;28;20036;-65
2022/04/20 13:55:42;;;;;;;6.10;2.60;;;;;;;;;;5071439;28;20052;-62
2022/04/20 13:58:47;;;;;;;17.65;3.78;;;;;;;;;;5071652;28;20052;-61
2022/04/20 14:01:51;;;;;;;14.48;3.70;;;;;;;;;;5070756;28;20052;-61
2022/04/20 14:04:55;;;;;;;10.07;3.13;;;;;;;;;;5071218;28;20047;-62
2022/04/20 14:08:00;;;;;;;11.10;3.65;;;;;;;;;;5071336;28;20519;-62
2022/04/20 14:11:05;;;;;;;32.22;6.20;;;;;;;;;;5071497;28;20495;-61
2022/04/20 14:14:10;;;;;;;12.68;3.80;;;;;;;;;;5071218;28;20059;-62
2022/04/20 14:17:16;;;;;;;10.07;3.50;;;;;;;;;;5071585;28;20102;-62
2022/04/20 14:20:20;;;;;;;9.60;3.13;;;;;;;;;;5070729;28;20047;-61
2022/04/20 14:23:25;;;;;;;12.70;3.50;;;;;;;;;;5071415;28;20036;-62
2022/04/20 14:33:15;;;;;;;9.32;3.40;;;;;;;;;;5071197;28;20040;-63
2022/04/20 14:36:20;;;;;;;10.95;3.55;;;;;;;;;;5070413;28;20044;-63
2022/04/20 14:39:24;;;;;;;13.38;3.20;;;;;;;;;;5071113;28;20043;-63
2022/04/20 14:42:29;;;;;;;7.35;3.20;;;;;;;;;;5070817;28;20040;-63
2022/04/20 14:45:32;;;;;;;9.23;3.03;;;;;;;;;;5070430;28;20370;-63
2022/04/20 14:48:37;;;;;;;9.88;3.92;;;;;;;;;;5071229;28;20028;-62
2022/04/20 14:51:44;;;;;;;9.30;3.38;;;;;;;;;;5070726;28;20037;-62
2022/04/20 14:54:48;;;;;;;11.05;3.08;;;;;;;;;;5070533;28;20044;-62
2022/04/20 14:57:53;;;;;;;9.70;3.20;;;;;;;;;;5071016;28;20043;-62
2022/04/20 15:00:57;;;;;;;15.95;4.80;;;;;;;;;;5070775;28;20044;-62
2022/04/20 15:04:02;;;;;;;14.52;4.40;;;;;;;;;;5071005;28;20051;-63
2022/04/20 15:07:08;;;;;;;9.60;3.20;;;;;;;;;;5070245;28;20044;-62
2022/04/20 15:10:12;;;;;;;12.48;4.10;;;;;;;;;;5070617;28;20045;-63
2022/04/20 15:13:16;;;;;;;18.48;3.92;;;;;;;;;;5070532;28;20051;-63
2022/04/20 15:16:20;;;;;;;24.88;7.15;;;;;;;;;;5070689;28;20404;-62
2022/04/20 15:19:25;;;;;;;14.50;3.75;;;;;;;;;;5070443;28;20051;-62
2022/04/20 15:22:29;;;;;;;13.80;2.92;;;;;;;;;;5070382;28;20408;-64
2022/04/20 15:25:34;;;;;;;13.60;3.10;;;;;;;;;;5069492;28;20048;-63
2022/04/20 15:28:39;;;;;;;11.40;2.50;;;;;;;;;;5070611;28;20047;-62
2022/04/20 15:31:43;;;;;;;7.85;3.45;;;;;;;;;;5071815;28;20044;-62
2022/04/20 15:34:47;;;;;;;12.45;4.43;;;;;;;;;;5073983;28;20048;-62
2022/04/20 15:37:52;;;;;;;11.85;3.47;;;;;;;;;;5073974;28;20388;-63
2022/04/20 15:40:59;;;;;;;15.13;3.72;;;;;;;;;;5074116;28;20516;-62
2022/04/20 15:44:03;;;;;;;13.65;3.40;;;;;;;;;;5073921;28;20404;-63
2022/04/20 15:47:08;;;;;;;15.30;3.28;;;;;;;;;;5073733;28;20048;-63
2022/04/20 15:50:12;;;;;;;11.00;3.28;;;;;;;;;;5073745;28;20051;-61
2022/04/20 15:53:16;;;;;;;10.05;3.50;;;;;;;;;;5072661;28;20051;-61
2022/04/20 16:03:15;;;;;;;8.63;3.15;;;;;;;;;;5073789;28;20046;-64
2022/04/20 16:06:20;;;;;;;13.00;3.50;;;;;;;;;;5073242;28;20040;-64
2022/04/20 16:09:25;;;;;;;11.43;3.95;;;;;;;;;;5061305;28;20480;-63
2022/04/20 16:12:30;;;;;;;11.18;4.65;;;;;;;;;;5073234;28;20052;-62
2022/04/20 16:15:35;;;;;;;19.33;3.65;;;;;;;;;;5073157;28;20071;-62
2022/04/20 16:18:39;;;;;;;16.33;4.60;;;;;;;;;;5073434;28;20483;-61
2022/04/20 16:21:43;;;;;;;14.80;3.72;;;;;;;;;;5073136;28;20055;-62
2022/04/20 16:24:47;;;;;;;11.35;3.08;;;;;;;;;;5072986;28;20051;-60
2022/04/20 16:27:51;;;;;;;10.10;3.85;;;;;;;;;;5072643;28;20043;-61
2022/04/20 16:30:56;;;;;;;14.65;4.43;;;;;;;;;;5071222;28;20479;-61
2022/04/20 16:34:00;;;;;;;13.93;5.07;;;;;;;;;;5072197;28;20055;-62
2022/04/20 16:37:04;;;;;;;20.83;4.40;;;;;;;;;;5072447;28;20491;-62
2022/04/20 16:40:09;;;;;;;15.38;4.47;;;;;;;;;;5072615;28;20055;-61
2022/04/20 16:43:14;;;;;;;18.80;4.00;;;;;;;;;;5070638;28;20491;-62
2022/04/20 16:46:18;;;;;;;19.17;4.40;;;;;;;;;;5072713;28;20040;-61
2022/04/20 16:49:22;;;;;;;12.52;4.10;;;;;;;;;;5072729;28;20059;-62
2022/04/20 16:52:27;;;;;;;9.52;3.35;;;;;;;;;;5072761;28;20412;-63
2022/04/20 16:55:31;;;;;;;14.02;3.88;;;;;;;;;;5071447;28;20496;-61
2022/04/20 16:58:36;;;;;;;19.75;4.40;;;;;;;;;;5072602;28;20044;-62
2022/04/20 17:01:42;;;;;;;12.75;4.38;;;;;;;;;;5071556;28;20063;-62
2022/04/20 17:04:46;;;;;;;9.18;3.42;;;;;;;;;;5072702;28;20397;-62
2022/04/20 17:07:50;;;;;;;16.60;4.43;;;;;;;;;;5072290;28;20056;-64
2022/04/20 17:10:56;;;;;;;18.52;4.05;;;;;;;;;;5072449;28;20051;-63
2022/04/20 17:14:00;;;;;;;16.08;4.88;;;;;;;;;;5072260;28;20067;-62
2022/04/20 17:17:05;;;;;;;9.52;4.28;;;;;;;;;;5071931;28;20039;-61
2022/04/20 17:26:55;;;;;;;26.15;5.03;;;;;;;;;;5071792;28;20056;-62
2022/04/20 17:29:59;;;;;;;16.98;4.75;;;;;;;;;;5072116;28;20052;-62
2022/04/20 17:33:04;;;;;;;19.38;4.72;;;;;;;;;;5070505;28;20068;-62
2022/04/20 17:39:30;;;;;;;20.40;5.00;;;;;;;;;;5071910;28;20051;-61
2022/04/20 17:42:35;;;;;;;17.45;5.13;;;;;;;;;;5071584;28;20048;-62
2022/04/20 17:45:40;;;;;;;20.90;5.60;;;;;;;;;;5071061;28;20594;-61
2022/04/20 17:48:44;;;;;;;25.27;6.25;;;;;;;;;;5071535;28;20047;-61
2022/04/20 17:51:49;;;;;;;21.92;5.97;;;;;;;;;;5071271;28;20048;-62
2022/04/20 17:54:54;;;;;;;18.48;5.22;;;;;;;;;;5070373;28;20059;-62
2022/04/20 17:57:58;;;;;;;20.15;6.35;;;;;;;;;;5071503;28;20043;-61
2022/04/20 18:01:02;;;;;;;23.67;5.70;;;;;;;;;;5071340;28;20055;-61
2022/04/20 18:04:07;;;;;;;23.23;7.00;;;;;;;;;;5071452;28;20047;-61
2022/04/20 18:07:11;;;;;;;39.55;12.13;;;;;;;;;;5071370;28;20064;-62
2022/04/20 18:10:16;;;;;;;20.85;7.20;;;;;;;;;;5071493;28;20051;-62
2022/04/20 18:13:21;;;;;;;17.17;6.85;;;;;;;;;;5071335;28;20044;-62
2022/04/20 18:16:25;;;;;;;23.65;7.20;;;;;;;;;;5070304;28;20598;-62
2022/04/20 18:19:31;;;;;;;30.35;9.20;;;;;;;;;;5071132;28;20039;-62
2022/04/20 18:22:36;;;;;;;25.27;6.82;;;;;;;;;;5071111;28;20047;-62
2022/04/20 18:25:40;;;;;;;21.17;6.20;;;;;;;;;;5070881;28;20044;-61
2022/04/20 18:28:45;;;;;;;24.98;7.57;;;;;;;;;;5071103;28;20388;-61
2022/04/20 18:31:49;;;;;;;33.80;8.30;;;;;;;;;;5071204;28;20055;-62
2022/04/20 18:34:53;;;;;;;29.65;8.13;;;;;;;;;;5070959;28;20404;-62
2022/04/20 18:37:58;;;;;;;26.38;9.75;;;;;;;;;;5071022;28;20297;-62
2022/04/20 18:41:02;;;;;;;39.25;11.75;;;;;;;;;;5070958;28;20499;-63
2022/04/20 18:44:06;;;;;;;41.33;9.07;;;;;;;;;;5070908;28;20048;-63
2022/04/20 18:47:11;;;;;;;17.52;7.22;;;;;;;;;;5070704;28;20499;-63
2022/04/20 18:50:15;;;;;;;30.08;9.68;;;;;;;;;;5070651;28;20487;-63
2022/04/20 19:00:08;;;;;;;20.92;7.93;;;;;;;;;;5071007;28;20044;-64
2022/04/20 19:03:13;;;;;;;32.03;9.35;;;;;;;;;;5070922;28;20464;-64
2022/04/20 19:06:17;;;;;;;25.35;8.02;;;;;;;;;;5073439;28;20408;-64
2022/04/20 19:09:22;;;;;;;20.70;8.40;;;;;;;;;;5074714;28;20059;-64
2022/04/20 19:12:27;;;;;;;23.65;8.75;;;;;;;;;;5074489;28;20051;-64
2022/04/20 19:15:32;;;;;;;23.33;8.50;;;;;;;;;;5074100;28;20483;-65
2022/04/20 19:18:37;;;;;;;24.40;8.48;;;;;;;;;;5074465;28;20043;-65
2022/04/20 19:21:41;;;;;;;20.23;9.13;;;;;;;;;;5074062;28;20048;-65
2022/04/20 19:24:46;;;;;;;25.80;8.68;;;;;;;;;;5074156;28;20047;-65
2022/04/20 19:27:50;;;;;;;14.15;7.05;;;;;;;;;;5073593;28;20055;-65
2022/04/20 19:30:56;;;;;;;13.10;7.15;;;;;;;;;;5074547;28;20052;-65
2022/04/20 19:34:01;;;;;;;27.67;8.10;;;;;;;;;;5074342;28;20100;-65
2022/04/20 19:37:05;;;;;;;25.48;8.00;;;;;;;;;;5074426;28;20051;-65
2022/04/20 19:40:10;;;;;;;20.17;7.60;;;;;;;;;;5074354;28;20052;-64
2022/04/20 19:43:14;;;;;;;18.75;7.60;;;;;;;;;;5074258;28;20535;-65
2022/04/20 19:46:18;;;;;;;19.00;8.38;;;;;;;;;;5073593;28;20047;-65
2022/04/20 19:49:23;;;;;;;21.00;9.60;;;;;;;;;;5073116;28;20071;-64
2022/04/20 19:52:28;;;;;;;24.25;10.02;;;;;;;;;;5074013;28;20040;-65
2022/04/20 19:55:33;;;;;;;18.67;10.23;;;;;;;;;;5073799;28;20064;-65
2022/04/20 19:58:37;;;;;;;25.15;11.00;;;;;;;;;;5073682;28;20048;-70
2022/04/20 20:01:41;;;;;;;28.35;10.60;;;;;;;;;;5060588;28;20119;-69